Time;durP1;ratioP1;P1;durP2;ratioP2;P2;SDS_P1;SDS_P2;PMS_P1;PMS_P2;Temp;Humidity;BMP_temperature;BMP_pressure;BME280_temperature;BME280_humidity;BME280_pressure;Samples;Min_cycle;Max_cycle;Signal;HPM_P1;HPM_P2
2023/07/06 00:00:48;;;;;;;7.13;2.85;;;13.40;99.90;;;-144.05;83.49;56895.56;5057219;28;20028;-84
2023/07/06 00:03:16;;;;;;;9.77;3.20;;;13.40;99.90;;;-144.05;83.31;56857.34;5076356;28;20107;-86
2023/07/06 00:05:45;;;;;;;5.93;2.95;;;13.40;99.90;;;-144.05;83.47;56889.19;5078710;28;20479;-88
2023/07/06 00:08:16;;;;;;;6.13;2.80;;;13.40;99.90;;;-144.05;83.14;56878.56;5077200;28;20028;-88
2023/07/06 00:10:49;;;;;;;4.15;2.50;;;13.50;99.90;;;-144.05;82.73;56870.06;5059791;28;20040;-87
2023/07/06 00:13:16;;;;;;;5.25;2.67;;;13.40;99.90;;;-144.05;82.72;56901.94;5060029;28;20132;-87
2023/07/06 00:15:43;;;;;;;4.22;2.83;;;13.40;99.90;;;-144.05;82.86;56884.94;5062329;28;20024;-87
2023/07/06 00:18:10;;;;;;;4.55;2.92;;;13.40;99.90;;;-144.05;82.26;56882.81;5065145;28;20120;-86
2023/07/06 00:20:37;;;;;;;6.50;3.00;;;13.40;99.90;;;-144.05;82.56;56893.44;5084983;28;20085;-84
2023/07/06 00:23:11;;;;;;;5.00;2.97;;;13.40;99.90;;;-144.05;82.52;56897.69;5088753;28;20020;-85
2023/07/06 00:25:41;;;;;;;6.78;2.90;;;13.40;99.90;;;-144.05;82.07;56891.31;5091864;28;20072;-83
2023/07/06 00:28:14;;;;;;;6.10;2.78;;;13.40;99.90;;;-144.05;82.27;56895.56;5092119;28;20046;-83
2023/07/06 00:33:12;;;;;;;6.65;2.83;;;13.30;99.90;;;-144.05;82.70;56878.56;5093169;28;20069;-86
2023/07/06 00:35:43;;;;;;;5.50;3.22;;;13.30;99.90;;;-144.05;81.54;56889.19;5074620;28;20466;-83
2023/07/06 00:38:16;;;;;;;6.82;3.08;;;13.30;99.90;;;-144.05;82.06;56874.31;5093114;28;20106;-85
2023/07/06 00:40:58;;;;;;;8.05;3.20;;;13.20;99.90;;;-144.05;82.35;56859.47;5092779;28;20027;-86
2023/07/06 00:43:45;;;;;;;6.30;3.20;;;13.20;99.90;;;-144.05;81.59;56893.44;5092775;28;20031;-87
2023/07/06 00:46:12;;;;;;;5.10;2.58;;;13.10;99.90;;;-144.05;82.42;56880.69;5074494;28;20555;-87
2023/07/06 00:48:44;;;;;;;4.18;2.55;;;13.10;99.90;;;-144.05;82.78;56884.94;5074754;28;20046;-84
2023/07/06 00:51:29;;;;;;;7.88;2.63;;;13.10;99.90;;;-144.05;82.88;56878.56;5093016;28;20028;-87
2023/07/06 00:54:07;;;;;;;4.90;2.67;;;13.10;99.90;;;-144.05;83.36;56878.56;5093032;28;20023;-84
2023/07/06 00:56:43;;;;;;;4.80;2.95;;;13.00;99.90;;;-144.05;82.79;56848.84;5074324;28;20032;-84
2023/07/06 00:59:19;;;;;;;6.32;3.25;;;13.00;99.90;;;-144.05;82.75;56891.31;5074569;28;20080;-86
2023/07/06 01:01:47;;;;;;;;;;;13.00;99.90;;;-144.05;82.42;56872.19;5074525;28;20024;-86
2023/07/06 01:04:19;;;;;;;4.97;2.83;;;13.00;99.90;;;-144.05;83.20;56891.31;5094187;28;19915;-86
2023/07/06 01:06:54;;;;;;;5.20;2.83;;;12.90;99.90;;;-144.05;83.37;56895.56;5075248;28;20031;-83
2023/07/06 01:09:24;;;;;;;5.10;3.10;;;12.90;99.90;;;-144.05;83.33;56878.56;5092225;28;20036;-83
2023/07/06 01:11:55;;;;;;;7.18;3.15;;;12.90;99.90;;;-144.05;83.21;56874.31;5073487;28;20081;-84
2023/07/06 01:14:21;;;;;;;5.22;2.92;;;12.90;99.90;;;-144.05;83.29;56878.56;5091759;28;20050;-84
2023/07/06 01:17:20;;;;;;;6.10;2.50;;;12.90;99.90;;;-144.05;82.87;56867.94;5073631;28;20056;-86
2023/07/06 01:20:15;;;;;;;6.55;2.60;;;12.90;99.90;;;-144.05;83.01;56901.94;5074103;28;20111;-83
2023/07/06 01:23:11;;;;;;;5.43;3.15;;;12.80;99.90;;;-144.05;83.26;56891.31;5074185;28;20059;-82
2023/07/06 01:26:25;;;;;;;7.17;3.33;;;12.80;99.90;;;-144.05;82.73;56880.69;5089204;28;20085;-81
2023/07/06 01:29:21;;;;;;;4.80;3.30;;;12.80;99.90;;;-144.05;82.95;56867.94;5054096;28;20297;-86
2023/07/06 01:32:02;;;;;;;4.32;3.13;;;12.80;99.90;;;-144.05;83.03;56867.94;5070754;28;20111;-82
2023/07/06 01:35:05;;;;;;;5.45;2.97;;;12.80;99.90;;;-144.05;82.56;56870.06;5054402;28;20063;-83
2023/07/06 01:37:42;;;;;;;5.60;3.03;;;12.70;99.90;;;-144.05;83.22;56887.06;5071952;28;20453;-82
2023/07/06 01:40:11;;;;;;;5.65;3.00;;;12.70;99.90;;;-144.05;83.09;56884.94;5071923;28;20028;-81
2023/07/06 01:42:40;;;;;;;7.85;3.10;;;12.70;99.90;;;-144.05;83.34;56865.81;5070644;28;20033;-83
2023/07/06 01:45:20;;;;;;;4.20;3.03;;;12.70;99.90;;;-144.05;83.11;56870.06;5054068;28;20730;-84
2023/07/06 01:48:01;;;;;;;4.93;2.90;;;12.70;99.90;;;-144.05;82.86;56865.81;5053710;28;20067;-84
2023/07/06 01:51:32;;;;;;;7.00;3.30;;;12.70;99.90;;;-144.05;83.66;56887.06;5071841;28;20028;-82
2023/07/06 01:54:16;;;;;;;6.55;3.25;;;12.70;99.90;;;-144.05;83.49;56884.94;4990071;28;20026;-85
2023/07/06 01:57:04;;;;;;;5.00;3.42;;;12.60;99.90;;;-144.05;83.63;56880.69;5071853;28;20157;-84
2023/07/06 01:59:36;;;;;;;7.43;3.28;;;12.70;99.90;;;-144.05;83.74;56876.44;5071907;28;20067;-85
2023/07/06 02:02:07;;;;;;;4.97;3.10;;;12.70;99.90;;;-144.05;83.34;56865.81;5071669;28;20116;-82
2023/07/06 02:04:38;;;;;;;6.70;3.20;;;12.70;99.90;;;-144.05;83.05;56884.94;5072067;28;20028;-86
2023/07/06 02:07:07;;;;;;;6.05;2.92;;;12.70;99.90;;;-144.05;83.33;56878.56;5072226;28;20032;-84
2023/07/06 02:09:43;;;;;;;8.95;3.58;;;12.70;99.90;;;-144.05;83.66;56861.56;5053787;28;20052;-84
2023/07/06 02:12:12;;;;;;;8.65;3.35;;;12.70;99.90;;;-144.05;83.76;56867.94;5071705;28;20033;-82
2023/07/06 02:14:42;;;;;;;6.88;3.22;;;12.70;99.90;;;-144.05;83.38;56882.81;5055612;28;20024;-87
2023/07/06 02:17:09;;;;;;;7.13;3.33;;;12.70;99.90;;;-144.05;83.81;56882.81;5057491;28;20499;-87
2023/07/06 02:19:38;;;;;;;10.35;3.97;;;12.60;99.90;;;-144.05;84.10;56863.69;5074747;28;20033;-83
2023/07/06 02:22:04;;;;;;;4.80;3.50;;;12.60;99.90;;;-144.05;83.65;56853.09;5058387;28;20536;-85
2023/07/06 02:24:32;;;;;;;5.65;3.80;;;12.60;99.90;;;-144.05;83.92;56887.06;5076189;28;20550;-84
2023/07/06 02:26:58;;;;;;;4.85;3.85;;;12.60;99.90;;;-144.05;84.06;56889.19;5078082;28;20527;-82
2023/07/06 02:29:24;;;;;;;5.80;3.45;;;12.60;99.90;;;-144.05;84.17;56880.69;5077258;28;20024;-83
2023/07/06 02:31:50;;;;;;;7.47;3.50;;;12.60;99.90;;;-144.05;83.91;56876.44;5095815;28;20035;-86
2023/07/06 02:34:24;;;;;;;5.88;3.75;;;12.60;99.90;;;-144.05;83.68;56895.56;5096217;28;20032;-84
2023/07/06 02:36:55;;;;;;;8.93;3.50;;;12.60;99.90;;;-144.05;83.88;56870.06;5077942;28;20032;-86
2023/07/06 02:39:24;;;;;;;8.38;3.53;;;12.60;99.90;;;-144.05;84.14;56904.06;5077243;28;20036;-85
2023/07/06 02:41:56;;;;;;;6.93;3.50;;;12.60;99.90;;;-144.05;84.09;56891.31;5095721;28;20035;-86
2023/07/06 02:44:24;;;;;;;6.97;4.03;;;12.50;99.90;;;-144.05;84.31;56887.06;5077023;28;20032;-86
2023/07/06 02:46:51;;;;;;;8.30;3.53;;;12.50;99.90;;;-144.05;84.46;56874.31;5095826;28;20553;-86
2023/07/06 02:49:17;;;;;;;6.53;3.65;;;12.50;99.90;;;-144.05;84.15;56861.56;5095674;28;20204;-86
2023/07/06 02:51:43;;;;;;;5.95;3.88;;;12.50;99.90;;;-144.05;83.71;56887.06;5077723;28;20028;-87
2023/07/06 02:54:14;;;;;;;8.15;3.70;;;12.50;99.90;;;-144.05;83.94;56884.94;5077237;28;20024;-87
2023/07/06 02:56:43;;;;;;;6.57;4.07;;;12.50;99.90;;;-144.05;83.89;56870.06;5077493;28;20089;-84
2023/07/06 02:59:13;;;;;;;18.63;3.90;;;12.40;99.90;;;-144.05;84.10;56889.19;5094781;28;20510;-84
2023/07/06 03:01:39;;;;;;;7.85;3.40;;;12.50;99.90;;;-144.05;84.17;56884.94;5075883;28;20035;-84
2023/07/06 03:04:11;;;;;;;8.73;4.07;;;12.50;99.90;;;-144.05;84.10;56876.44;5076556;28;20028;-83
2023/07/06 03:06:39;;;;;;;7.43;4.22;;;12.40;99.90;;;-144.05;84.46;56889.19;5094559;28;20020;-85
2023/07/06 03:09:09;;;;;;;5.88;3.70;;;12.40;99.90;;;-144.05;84.14;56901.94;5094540;28;20105;-84
2023/07/06 03:11:37;;;;;;;6.68;3.35;;;12.40;99.90;;;-144.05;84.07;56880.69;5076297;28;20476;-85
2023/07/06 03:14:04;;;;;;;8.13;3.38;;;12.40;99.90;;;-144.05;84.47;56893.44;5075928;28;20035;-87
2023/07/06 03:16:53;;;;;;;9.15;4.35;;;12.30;99.90;;;-144.05;84.34;56895.56;5094755;28;20174;-85
2023/07/06 03:19:21;;;;;;;7.80;3.50;;;12.30;99.90;;;-144.05;84.66;56901.94;5075894;28;20054;-87
2023/07/06 03:21:47;;;;;;;7.10;3.83;;;12.30;99.90;;;-144.05;85.02;56891.31;5076331;28;20044;-86
2023/07/06 03:24:13;;;;;;;12.57;5.00;;;12.30;99.90;;;-144.05;85.02;56891.31;5076268;28;20111;-86
2023/07/06 03:26:41;;;;;;;6.00;4.07;;;12.30;99.90;;;-144.05;85.41;56887.06;5081614;28;20024;-84
2023/07/06 03:29:12;;;;;;;10.02;4.47;;;12.30;99.90;;;-144.05;85.84;56889.19;5074401;28;20048;-84
2023/07/06 03:31:38;;;;;;;7.60;3.92;;;12.30;99.90;;;-144.05;84.90;56880.69;5056043;28;20040;-86
2023/07/06 03:34:06;;;;;;;9.13;3.75;;;12.30;99.90;;;-144.05;85.41;56887.06;5055997;28;20078;-84
2023/07/06 03:36:33;;;;;;;6.78;4.13;;;12.40;99.90;;;-144.05;85.41;56876.44;5073736;28;20016;-83
2023/07/06 03:39:01;;;;;;;6.88;3.83;;;12.40;99.90;;;-144.05;84.99;56891.31;5056728;28;20052;-87
2023/07/06 03:41:28;;;;;;;6.40;4.13;;;12.40;99.90;;;-144.05;85.12;56878.56;5056896;28;20025;-85
2023/07/06 03:43:58;;;;;;;11.05;4.65;;;12.40;99.90;;;-144.05;85.62;56914.69;5075912;28;20029;-85
2023/07/06 03:46:33;;;;;;;8.05;4.28;;;12.40;99.90;;;-144.05;85.62;56889.19;5074405;28;20056;-83
2023/07/06 03:49:10;;;;;;;8.77;4.88;;;12.40;99.90;;;-144.05;85.53;56874.31;5055604;28;20559;-85
2023/07/06 03:51:36;;;;;;;7.85;4.40;;;12.40;99.90;;;-144.05;85.72;56897.69;5073950;28;20087;-86
2023/07/06 03:54:06;;;;;;;7.15;4.65;;;12.40;99.90;;;-144.05;85.49;56884.94;5072380;28;20021;-85
2023/07/06 03:56:33;;;;;;;8.32;4.30;;;12.40;99.90;;;-144.05;85.56;56887.06;5055896;28;20395;-86
2023/07/06 03:59:00;;;;;;;8.95;4.30;;;12.50;99.90;;;-144.05;85.55;56887.06;5056557;28;20390;-84
2023/07/06 04:01:29;;;;;;;16.42;4.38;;;12.50;99.90;;;-144.05;85.56;56882.81;5074754;28;20028;-85
2023/07/06 04:03:55;;;;;;;7.95;4.32;;;12.50;99.90;;;-144.05;84.74;56891.31;5056874;28;20029;-83
2023/07/06 04:06:28;;;;;;;9.60;3.97;;;12.60;99.90;;;-144.05;85.16;56899.81;5066916;28;20067;-84
2023/07/06 04:08:59;;;;;;;6.40;3.53;;;12.60;99.90;;;-144.05;84.46;56870.06;5056881;28;20032;-85
2023/07/06 04:11:25;;;;;;;7.60;3.78;;;12.60;99.90;;;-144.05;84.64;56863.69;5073657;28;20028;-84
2023/07/06 04:13:57;;;;;;;12.45;3.80;;;12.60;99.90;;;-144.05;84.19;56882.81;5056996;28;20040;-84
2023/07/06 04:16:23;;;;;;;12.88;4.65;;;12.60;99.90;;;-144.05;84.67;56889.19;5056783;28;20058;-82
2023/07/06 04:18:50;;;;;;;8.35;3.85;;;12.60;99.90;;;-144.05;84.57;56887.06;5056863;28;20024;-84
2023/07/06 04:21:20;;;;;;;7.55;3.90;;;12.60;99.90;;;-144.05;84.10;56906.19;5057388;28;20032;-85
2023/07/06 04:23:50;;;;;;;7.38;3.88;;;12.70;99.90;;;-144.05;84.46;56884.94;5074930;28;20104;-84
2023/07/06 04:26:20;;;;;;;9.52;4.32;;;12.70;99.90;;;-144.05;84.31;56882.81;5083361;28;20486;-85
2023/07/06 04:28:48;;;;;;;9.02;3.90;;;12.60;99.90;;;-144.05;83.96;56872.19;5076754;28;20378;-82
2023/07/06 04:31:15;;;;;;;11.30;3.95;;;12.70;99.90;;;-144.05;83.77;56876.44;5094938;28;20066;-86
2023/07/06 04:33:45;;;;;;;6.40;3.80;;;12.70;99.90;;;-144.05;83.77;56895.56;5077377;28;20032;-84
2023/07/06 04:36:15;;;;;;;8.98;3.65;;;12.70;99.90;;;-144.05;83.56;56876.44;5094541;28;20109;-84
2023/07/06 04:38:41;;;;;;;7.15;3.55;;;12.80;99.90;;;-144.05;83.32;56895.56;5076113;28;20031;-85
2023/07/06 04:41:08;;;;;;;7.28;3.67;;;12.90;99.90;;;-144.05;82.82;56895.56;5076170;28;20380;-85
2023/07/06 04:43:33;;;;;;;7.80;3.90;;;12.90;99.90;;;-144.05;82.19;56872.19;5076063;28;20517;-84
2023/07/06 04:45:59;;;;;;;8.13;3.83;;;13.00;99.90;;;-144.05;81.46;56863.69;5075951;28;20036;-86
2023/07/06 04:48:29;;;;;;;12.98;4.05;;;13.10;99.90;;;-144.05;80.91;56880.69;5095226;28;20027;-86
2023/07/06 04:50:55;;;;;;;8.43;3.33;;;13.20;99.90;;;-144.05;80.21;56880.69;5076872;28;20028;-85
2023/07/06 04:53:23;;;;;;;7.97;3.42;;;13.30;99.90;;;-144.05;79.75;56880.69;5095100;28;20035;-84
2023/07/06 04:55:51;;;;;;;8.77;3.55;;;13.40;99.90;;;-144.05;78.99;56863.69;5076576;28;20550;-84
2023/07/06 04:58:17;;;;;;;9.35;3.30;;;13.50;99.90;;;-144.05;78.60;56884.94;5077246;28;20028;-87
2023/07/06 05:00:45;;;;;;;6.00;2.85;;;13.60;99.90;;;-144.05;77.83;56893.44;5076948;28;20028;-85
2023/07/06 05:03:12;;;;;;;6.40;2.83;;;13.70;99.90;;;-144.05;76.82;56906.19;5077673;28;20024;-85
2023/07/06 05:05:46;;;;;;;9.13;2.85;;;13.80;99.90;;;-144.05;76.05;56884.94;5076369;28;20387;-86
2023/07/06 05:08:19;;;;;;;9.75;2.92;;;13.90;99.90;;;-144.05;75.81;56878.56;5077229;28;20487;-86
2023/07/06 05:10:51;;;;;;;5.00;3.10;;;14.00;99.90;;;-144.05;74.02;56897.69;5076658;28;20127;-87
2023/07/06 05:13:22;;;;;;;7.90;2.83;;;14.10;99.90;;;-144.05;73.53;56897.69;5095419;28;20039;-84
2023/07/06 05:15:49;;;;;;;6.18;3.03;;;14.30;99.90;;;-144.05;72.91;56897.69;5076860;28;20348;-86
2023/07/06 05:18:19;;;;;;;7.68;2.67;;;14.40;99.90;;;-144.05;71.91;56872.19;5094319;28;20024;-83
2023/07/06 05:20:56;;;;;;;8.50;2.90;;;14.50;99.90;;;-144.05;71.90;56865.81;5076096;28;20055;-84
2023/07/06 05:23:28;;;;;;;7.03;2.60;;;14.60;99.90;;;-144.05;71.80;56884.94;5094139;28;20103;-85
2023/07/06 05:26:02;;;;;;;10.93;2.80;;;14.60;99.90;;;-144.05;71.72;56893.44;5067391;28;20040;-83
2023/07/06 05:28:32;;;;;;;6.95;2.40;;;14.70;99.90;;;-144.05;70.49;56887.06;5036289;28;20021;-85
2023/07/06 05:31:02;;;;;;;12.05;3.00;;;14.80;99.90;;;-144.05;69.99;56899.81;5053815;28;20025;-85
2023/07/06 05:33:30;;;;;;;9.77;2.63;;;14.90;99.90;;;-144.05;68.21;56874.31;5036219;28;20544;-85
2023/07/06 05:35:56;;;;;;;7.72;2.45;;;15.00;99.90;;;-144.05;69.00;56901.94;5036709;28;20032;-85
2023/07/06 05:38:22;;;;;;;9.88;2.30;;;15.10;99.90;;;-144.05;69.09;56876.44;5054416;28;20480;-86
2023/07/06 05:40:48;;;;;;;6.22;2.58;;;15.30;99.90;;;-144.05;67.69;56880.69;5054271;28;20033;-84
2023/07/06 05:43:19;;;;;;;5.60;2.42;;;15.40;99.90;;;-144.05;67.73;56872.19;5054028;28;20079;-84
2023/07/06 05:45:47;;;;;;;7.00;2.17;;;15.50;99.90;;;-144.05;66.27;56887.06;5054227;28;20550;-86
2023/07/06 05:48:14;;;;;;;6.45;2.30;;;15.70;99.90;;;-144.05;65.26;56887.06;5037131;28;20120;-84
2023/07/06 05:50:40;;;;;;;8.18;2.20;;;15.90;99.90;;;-144.05;65.36;56895.56;5039807;28;20021;-85
2023/07/06 05:53:07;;;;;;;14.55;2.97;;;16.00;99.90;;;-144.05;64.98;56895.56;5040264;28;20345;-86
2023/07/06 05:55:33;;;;;;;4.97;2.28;;;16.00;99.90;;;-144.05;62.94;56889.19;5040609;28;20561;-84
2023/07/06 05:57:59;;;;;;;9.38;2.90;;;16.30;99.90;;;-144.05;62.57;56872.19;5057689;28;20050;-86
2023/07/06 06:00:25;;;;;;;8.10;2.45;;;16.40;99.90;;;-144.05;60.95;56914.69;5039825;28;20092;-85
2023/07/06 06:02:51;;;;;;;7.68;2.30;;;16.40;99.90;;;-144.05;61.49;56870.06;5058146;28;20029;-85
2023/07/06 06:05:17;;;;;;;7.03;2.47;;;16.50;99.90;;;-144.05;61.47;56895.56;5040645;28;20440;-85
2023/07/06 06:07:44;;;;;;;6.07;2.08;;;16.60;99.90;;;-144.05;61.48;56914.69;5058218;28;20158;-86
2023/07/06 06:10:12;;;;;;;6.68;2.38;;;16.70;99.90;;;-144.05;60.55;56897.69;5040277;28;20039;-86
2023/07/06 06:12:38;;;;;;;6.93;2.20;;;16.80;99.90;;;-144.05;60.54;56884.94;5058321;28;20108;-85
2023/07/06 06:15:08;;;;;;;6.85;2.22;;;16.80;99.90;;;-144.05;60.18;56897.69;5040511;28;20081;-84
2023/07/06 06:17:36;;;;;;;5.22;1.98;;;16.90;99.90;;;-144.05;59.21;56904.06;5040495;28;20052;-86
2023/07/06 06:20:04;;;;;;;5.60;2.03;;;17.20;99.90;;;-144.05;57.77;56887.06;5040435;28;20048;-84
2023/07/06 06:22:30;;;;;;;7.53;2.58;;;17.30;99.90;;;-144.05;57.20;56916.81;5057207;28;20039;-83
2023/07/06 06:24:56;;;;;;;7.82;2.33;;;17.60;99.90;;;-144.05;57.27;56901.94;5040312;28;20024;-88
2023/07/06 06:27:22;;;;;;;6.18;2.00;;;17.80;99.90;;;-144.05;58.43;56882.81;5075218;28;20505;-86
2023/07/06 06:29:48;;;;;;;7.03;2.30;;;17.60;99.90;;;-144.05;57.93;56895.56;5098802;28;20123;-86
2023/07/06 06:32:14;;;;;;;12.00;2.92;;;17.50;99.90;;;-144.05;58.27;56916.81;5098500;28;20031;-88
2023/07/06 06:34:42;;;;;;;9.52;2.70;;;17.30;99.90;;;-144.05;58.61;56901.94;5101201;28;20053;-87
2023/07/06 06:37:09;;;;;;;8.10;2.30;;;17.20;99.90;;;-144.05;59.37;56891.31;5086162;28;20031;-85
2023/07/06 06:39:36;;;;;;;10.10;2.60;;;17.10;99.90;;;-144.05;59.10;56884.94;5088985;28;20506;-86
2023/07/06 06:42:03;;;;;;;9.85;2.38;;;17.40;99.90;;;-144.05;58.29;56895.56;5093106;28;20032;-85
2023/07/06 06:44:30;;;;;;;7.47;2.70;;;17.70;99.90;;;-144.05;56.44;56897.69;5079795;28;20371;-85
2023/07/06 06:47:00;;;;;;;7.63;2.55;;;18.10;99.90;;;-144.05;55.91;56893.44;5098443;28;20081;-84
2023/07/06 06:49:26;;;;;;;9.43;2.78;;;18.30;99.90;;;-144.05;54.72;56908.31;5079977;28;20053;-85
2023/07/06 06:51:52;;;;;;;8.02;2.58;;;18.60;99.90;;;-144.05;55.57;56912.56;5079826;28;20043;-86
2023/07/06 06:54:19;;;;;;;7.55;2.22;;;18.50;99.90;;;-144.05;55.88;56910.44;5079337;28;20028;-84
2023/07/06 06:56:45;;;;;;;6.97;2.35;;;18.50;99.90;;;-144.05;55.41;56916.81;5096769;28;20479;-85
2023/07/06 06:59:12;;;;;;;14.07;3.03;;;18.60;99.90;;;-144.05;55.33;56906.19;5078956;28;20036;-86
2023/07/06 07:01:40;;;;;;;9.65;3.15;;;18.40;99.90;;;-144.05;55.24;56904.06;5096183;28;20048;-83
2023/07/06 07:04:09;;;;;;;12.45;2.75;;;18.50;99.90;;;-144.05;56.25;56914.69;5097591;28;20034;-81
2023/07/06 07:06:38;;;;;;;10.10;3.03;;;18.50;99.90;;;-144.05;56.42;56921.06;5098293;28;20035;-85
2023/07/06 07:09:09;;;;;;;8.35;2.75;;;18.50;99.90;;;-144.05;54.29;56908.31;5098310;28;20042;-85
2023/07/06 07:11:36;;;;;;;7.70;2.30;;;19.00;99.90;;;-144.05;54.03;56904.06;5088790;28;20040;-82
2023/07/06 07:14:02;;;;;;;7.57;2.38;;;19.30;99.90;;;-144.05;53.14;56916.81;5079203;28;20127;-85
2023/07/06 07:16:29;;;;;;;11.55;2.38;;;19.30;99.90;;;-144.05;53.21;56914.69;5096512;28;20460;-83
2023/07/06 07:18:55;;;;;;;8.10;2.50;;;19.60;99.90;;;-144.05;52.82;56901.94;5096489;28;20020;-84
2023/07/06 07:21:21;;;;;;;11.13;2.42;;;19.70;99.90;;;-144.05;52.90;56923.19;5079087;28;20028;-83
2023/07/06 07:23:49;;;;;;;10.15;2.50;;;19.90;99.90;;;-144.05;50.85;56935.91;5097464;28;20443;-83
2023/07/06 07:26:20;;;;;;;9.63;2.65;;;20.20;99.90;;;-144.05;49.92;56918.94;5097220;28;20114;-83
2023/07/06 07:28:48;;;;;;;9.40;1.95;;;20.30;99.90;;;-144.05;52.82;56929.53;5077742;28;20028;-83
2023/07/06 07:31:17;;;;;;;9.10;2.72;;;20.00;99.90;;;-144.05;51.18;56938.03;5078481;28;20519;-82
2023/07/06 07:33:49;;;;;;;5.53;2.38;;;20.20;99.90;;;-144.05;51.38;56921.06;5096269;28;20024;-85
2023/07/06 07:36:18;;;;;;;8.25;1.88;;;19.90;99.90;;;-144.05;51.74;56925.28;5096201;28;20039;-84
2023/07/06 07:38:48;;;;;;;10.18;2.60;;;19.70;99.90;;;-144.05;51.16;56904.06;5078899;28;20078;-82
2023/07/06 07:41:19;;;;;;;7.95;2.15;;;19.70;99.90;;;-144.05;50.85;56935.91;5096590;28;20084;-85
2023/07/06 07:43:48;;;;;;;5.35;1.58;;;19.90;99.90;;;-144.05;49.02;56946.53;5078737;28;20024;-87
2023/07/06 07:46:19;;;;;;;6.90;1.80;;;20.30;99.90;;;-144.05;48.70;56916.81;5097097;28;20034;-84
2023/07/06 07:48:50;;;;;;;6.57;1.70;;;20.50;99.90;;;-144.05;49.92;56931.66;5078668;28;20028;-82
2023/07/06 07:51:25;;;;;;;7.78;1.80;;;20.50;99.90;;;-144.05;47.97;56938.03;5078834;28;20414;-85
2023/07/06 07:53:54;;;;;;;4.85;1.80;;;20.90;99.90;;;-144.05;46.30;56933.78;5079387;28;20035;-86
2023/07/06 07:56:24;;;;;;;8.48;1.95;;;20.80;99.90;;;-144.05;46.13;56950.78;5079635;28;20448;-86
2023/07/06 07:58:50;;;;;;;4.10;1.95;;;20.90;99.90;;;-144.05;47.71;56965.66;5079010;28;20195;-85
2023/07/06 08:01:22;;;;;;;6.22;2.30;;;20.50;99.90;;;-144.05;48.63;56938.03;5078551;28;20031;-85
2023/07/06 08:03:50;;;;;;;7.88;1.92;;;20.50;99.90;;;-144.05;45.70;56952.91;5097799;28;20475;-87
2023/07/06 08:06:18;;;;;;;6.38;2.28;;;20.80;99.90;;;-144.05;45.65;56952.91;5079251;28;20032;-83
2023/07/06 08:08:47;;;;;;;8.07;2.30;;;21.10;99.90;;;-144.05;45.20;56938.03;5096768;28;20386;-85
2023/07/06 08:11:23;;;;;;;4.47;1.77;;;21.00;99.90;;;-144.05;46.10;56940.16;5064208;22;20115;-80
2023/07/06 08:13:53;;;;;;;7.13;2.20;;;20.80;99.90;;;-144.05;46.05;56940.16;5034960;28;20025;-84
2023/07/06 08:16:22;;;;;;;10.98;2.08;;;20.90;99.90;;;-144.05;46.21;56914.69;5050258;28;20120;-82
2023/07/06 08:18:50;;;;;;;5.65;1.52;;;20.80;99.90;;;-144.05;46.74;56942.28;5034679;28;20431;-80
2023/07/06 08:21:17;;;;;;;2.60;1.45;;;20.70;99.90;;;-144.05;46.13;56946.53;5049889;28;20083;-82
2023/07/06 08:23:50;;;;;;;7.80;1.92;;;20.60;99.90;;;-144.05;45.78;56938.03;5037600;28;20488;-83
2023/07/06 08:26:18;;;;;;;7.80;1.85;;;20.80;99.90;;;-144.05;46.98;56950.78;5046272;28;20025;-79
2023/07/06 08:28:46;;;;;;;7.90;2.28;;;20.80;99.90;;;-144.05;45.30;56963.53;5056197;28;20032;-84
2023/07/06 08:31:17;;;;;;;5.13;1.42;;;21.40;99.90;;;-144.05;44.62;56955.03;5055053;28;20025;-83
2023/07/06 08:33:46;;;;;;;5.03;1.65;;;21.80;99.90;;;-144.05;45.22;56952.91;5057064;28;20094;-83
2023/07/06 08:36:15;;;;;;;7.20;1.52;;;22.00;99.90;;;-144.05;43.69;56974.16;5055259;28;20055;-83
2023/07/06 08:38:43;;;;;;;4.20;2.00;;;22.20;99.90;;;-144.05;41.93;56963.53;5071148;28;20036;-84
2023/07/06 08:41:30;;;;;;;8.52;2.03;;;22.00;99.90;;;-144.05;42.17;56972.03;5054065;28;20564;-81
2023/07/06 08:44:00;;;;;;;8.13;1.77;;;21.90;99.90;;;-144.05;42.79;56969.91;5054783;28;20033;-82
2023/07/06 08:46:36;;;;;;;5.68;1.80;;;22.00;99.90;;;-144.05;41.00;56974.16;5053692;28;20052;-81
2023/07/06 08:49:04;;;;;;;6.10;1.90;;;22.00;99.90;;;-144.05;43.34;56980.53;5055262;28;20023;-82
2023/07/06 08:51:37;;;;;;;4.90;1.73;;;22.10;99.90;;;-144.05;42.11;56955.03;5055055;28;20047;-84
2023/07/06 08:54:21;;;;;;;4.05;1.50;;;21.90;99.90;;;-144.05;41.69;56974.16;5053848;28;20032;-81
2023/07/06 08:56:49;;;;;;;3.35;1.48;;;22.00;99.90;;;-144.05;43.61;56946.53;5054640;28;20032;-83
2023/07/06 08:59:41;;;;;;;5.03;1.90;;;21.30;99.90;;;-144.05;43.18;56946.53;5054168;28;20043;-79
2023/07/06 09:02:27;;;;;;;6.03;1.98;;;21.60;99.90;;;-144.05;42.41;56980.53;5053185;28;20036;-81
2023/07/06 09:05:01;;;;;;;7.00;1.77;;;22.10;99.90;;;-144.05;40.75;56972.03;5052662;28;20029;-80
2023/07/06 09:07:43;;;;;;;6.13;1.90;;;22.40;99.90;;;-144.05;40.13;56986.91;5052767;28;20576;-82
2023/07/06 09:10:23;;;;;;;7.07;1.80;;;22.70;99.90;;;-144.05;39.03;56946.53;5053555;28;20035;-83
2023/07/06 09:12:51;;;;;;;7.55;3.22;;;22.90;99.90;;;-144.05;40.24;56984.78;5053754;28;20049;-81
2023/07/06 09:15:21;;;;;;;7.88;1.80;;;23.10;99.90;;;-144.05;40.41;56963.53;5052585;28;20115;-82
2023/07/06 09:17:50;;;;;;;4.75;1.80;;;23.00;99.90;;;-144.05;39.75;56963.53;5052312;28;20132;-82
2023/07/06 09:20:21;;;;;;;4.82;1.70;;;22.90;99.90;;;-144.05;39.94;56997.50;5053174;28;20072;-80
2023/07/06 09:22:48;;;;;;;8.50;1.80;;;23.10;99.90;;;-144.05;39.43;56997.50;5052898;28;20033;-83
2023/07/06 09:25:35;;;;;;;7.00;2.00;;;23.00;99.90;;;-144.05;40.15;56967.78;5058558;28;20036;-83
2023/07/06 09:28:07;;;;;;;5.80;2.20;;;22.80;99.90;;;-144.05;39.29;56989.00;5039029;28;20025;-83
2023/07/06 09:30:38;;;;;;;5.53;1.98;;;23.10;99.90;;;-144.05;37.91;56982.66;5037368;28;20030;-81
2023/07/06 09:33:26;;;;;;;7.30;2.10;;;23.30;99.90;;;-144.05;37.87;56991.13;5037133;28;20025;-81
2023/07/06 09:35:57;;;;;;;5.20;1.40;;;23.20;99.90;;;-144.05;36.87;56986.91;5038773;28;20037;-82
2023/07/06 09:38:27;;;;;;;8.13;2.03;;;23.50;99.90;;;-144.05;37.05;56999.63;5036829;28;20511;-84
2023/07/06 09:40:54;;;;;;;4.60;1.50;;;23.70;99.90;;;-144.05;37.19;57006.00;5036757;28;20036;-81
2023/07/06 09:43:27;;;;;;;4.90;1.77;;;23.90;99.90;;;-144.05;37.37;56980.53;5037639;28;20025;-83
2023/07/06 09:45:58;;;;;;;4.93;2.17;;;23.50;99.90;;;-144.05;39.15;56984.78;5038385;28;20481;-81
2023/07/06 09:48:38;;;;;;;9.65;2.42;;;23.20;99.90;;;-144.05;39.32;56980.53;5038837;28;20045;-83
2023/07/06 09:51:32;;;;;;;6.10;1.92;;;22.50;99.90;;;-144.05;38.29;56984.78;5037069;28;20032;-81
2023/07/06 09:54:13;;;;;;;5.85;2.10;;;22.80;99.90;;;-144.05;36.95;57001.75;5041559;28;20029;-84
2023/07/06 09:56:39;;;;;;;4.32;1.50;;;23.40;99.90;;;-144.05;37.11;56959.28;5042948;28;20076;-83
2023/07/06 09:59:06;;;;;;;2.92;1.27;;;23.10;99.90;;;-144.05;36.57;56999.63;5040530;28;20052;-83
2023/07/06 10:02:05;;;;;;;3.90;1.50;;;23.30;99.60;;;-144.05;35.42;56974.16;5037378;28;20492;-82
2023/07/06 10:05:23;;;;;;;4.68;1.42;;;23.40;99.20;;;-144.05;35.37;57018.75;5038030;28;20068;-80
2023/07/06 10:08:14;;;;;;;3.95;1.70;;;24.10;98.40;;;-144.05;34.72;57010.25;5039520;28;20056;-83
2023/07/06 10:11:09;;;;;;;4.38;1.95;;;24.10;97.20;;;-144.05;36.40;56984.78;5037601;28;20102;-80
2023/07/06 10:14:00;;;;;;;4.63;1.88;;;24.10;96.60;;;-144.05;35.21;57008.13;5036353;28;20025;-82
2023/07/06 10:17:14;;;;;;;5.97;1.67;;;24.50;97.80;;;-144.05;34.71;57052.75;5036489;28;20028;-82
2023/07/06 10:20:05;;;;;;;6.22;1.50;;;25.10;96.70;;;-144.05;34.27;57048.50;5035734;28;20040;-82
2023/07/06 10:23:13;;;;;;;5.22;1.85;;;25.20;96.20;;;-144.05;35.59;56997.50;5037916;28;20396;-81
2023/07/06 10:26:07;;;;;;;5.22;1.95;;;24.20;94.40;;;-144.05;34.47;57014.50;4940576;29;20106;-81
2023/07/06 10:28:47;;;;;;;5.13;2.10;;;24.00;94.70;;;-144.05;36.63;56995.38;5018768;28;20537;-81